sensor_id;sensor_type;location;lat;lon;timestamp;temperature;humidity
57026;DHT22;43961;52.940;6.834;2022-08-03T00:01:34;19.50;99.90
57026;DHT22;43961;52.940;6.834;2022-08-03T00:04:00;19.50;99.90
57026;DHT22;43961;52.940;6.834;2022-08-03T00:06:26;19.40;99.90
57026;DHT22;43961;52.940;6.834;2022-08-03T00:08:51;19.40;99.90
57026;DHT22;43961;52.940;6.834;2022-08-03T00:11:17;19.40;99.90
57026;DHT22;43961;52.940;6.834;2022-08-03T00:13:43;19.40;99.90
57026;DHT22;43961;52.940;6.834;2022-08-03T00:16:10;19.40;99.90
57026;DHT22;43961;52.940;6.834;2022-08-03T00:18:36;19.30;99.90
57026;DHT22;43961;52.940;6.834;2022-08-03T00:21:03;19.30;99.90
57026;DHT22;43961;52.940;6.834;2022-08-03T00:23:29;19.30;99.90
57026;DHT22;43961;52.940;6.834;2022-08-03T00:25:55;19.30;99.90
57026;DHT22;43961;52.940;6.834;2022-08-03T00:28:21;19.30;99.90
57026;DHT22;43961;52.940;6.834;2022-08-03T00:30:46;19.20;99.90
57026;DHT22;43961;52.940;6.834;2022-08-03T00:33:12;19.20;99.90
57026;DHT22;43961;52.940;6.834;2022-08-03T00:35:38;19.20;99.90
57026;DHT22;43961;52.940;6.834;2022-08-03T00:38:04;19.30;99.90
57026;DHT22;43961;52.940;6.834;2022-08-03T00:40:30;19.30;99.90
57026;DHT22;43961;52.940;6.834;2022-08-03T00:42:57;19.20;99.90
57026;DHT22;43961;52.940;6.834;2022-08-03T00:45:25;19.20;99.90
57026;DHT22;43961;52.940;6.834;2022-08-03T00:47:51;19.20;99.90
57026;DHT22;43961;52.940;6.834;2022-08-03T00:50:18;19.20;99.90
57026;DHT22;43961;52.940;6.834;2022-08-03T00:52:45;19.20;99.90
57026;DHT22;43961;52.940;6.834;2022-08-03T00:55:11;19.10;99.90
57026;DHT22;43961;52.940;6.834;2022-08-03T00:57:37;19.10;99.90
57026;DHT22;43961;52.940;6.834;2022-08-03T01:00:07;19.10;99.90
57026;DHT22;43961;52.940;6.834;2022-08-03T01:02:33;19.10;99.90
57026;DHT22;43961;52.940;6.834;2022-08-03T01:04:59;19.10;99.90
57026;DHT22;43961;52.940;6.834;2022-08-03T01:10:12;19.00;99.90
57026;DHT22;43961;52.940;6.834;2022-08-03T01:17:58;19.00;99.90
57026;DHT22;43961;52.940;6.834;2022-08-03T01:20:28;19.00;99.90
57026;DHT22;43961;52.940;6.834;2022-08-03T01:28:38;18.90;99.90
57026;DHT22;43961;52.940;6.834;2022-08-03T01:31:10;18.80;99.90
57026;DHT22;43961;52.940;6.834;2022-08-03T01:33:47;18.70;99.90
57026;DHT22;43961;52.940;6.834;2022-08-03T01:36:18;18.60;99.90
57026;DHT22;43961;52.940;6.834;2022-08-03T01:39:00;18.50;99.90
57026;DHT22;43961;52.940;6.834;2022-08-03T01:41:32;18.40;99.90
57026;DHT22;43961;52.940;6.834;2022-08-03T01:44:00;18.30;99.90
57026;DHT22;43961;52.940;6.834;2022-08-03T01:46:28;18.20;99.90
57026;DHT22;43961;52.940;6.834;2022-08-03T01:48:55;18.10;99.90
57026;DHT22;43961;52.940;6.834;2022-08-03T01:51:21;18.10;99.90
57026;DHT22;43961;52.940;6.834;2022-08-03T01:53:49;18.00;99.90
57026;DHT22;43961;52.940;6.834;2022-08-03T01:56:18;17.90;99.90
57026;DHT22;43961;52.940;6.834;2022-08-03T01:58:45;17.90;99.90
57026;DHT22;43961;52.940;6.834;2022-08-03T02:01:14;17.90;99.90
57026;DHT22;43961;52.940;6.834;2022-08-03T02:03:42;18.00;99.90
57026;DHT22;43961;52.940;6.834;2022-08-03T02:06:09;17.90;99.90
57026;DHT22;43961;52.940;6.834;2022-08-03T02:08:34;17.90;99.90
57026;DHT22;43961;52.940;6.834;2022-08-03T02:11:01;17.90;99.90
57026;DHT22;43961;52.940;6.834;2022-08-03T02:13:28;17.90;99.90
57026;DHT22;43961;52.940;6.834;2022-08-03T02:15:56;18.00;99.90
57026;DHT22;43961;52.940;6.834;2022-08-03T02:18:23;18.00;99.90
57026;DHT22;43961;52.940;6.834;2022-08-03T02:20:50;17.90;99.90
57026;DHT22;43961;52.940;6.834;2022-08-03T02:23:16;18.00;99.90
57026;DHT22;43961;52.940;6.834;2022-08-03T02:25:52;18.00;99.90
57026;DHT22;43961;52.940;6.834;2022-08-03T02:28:21;18.00;99.90
57026;DHT22;43961;52.940;6.834;2022-08-03T02:30:53;18.00;99.90
57026;DHT22;43961;52.940;6.834;2022-08-03T02:33:27;18.00;99.90
57026;DHT22;43961;52.940;6.834;2022-08-03T02:35:56;18.10;99.90
57026;DHT22;43961;52.940;6.834;2022-08-03T02:38:30;18.10;99.90
57026;DHT22;43961;52.940;6.834;2022-08-03T02:40:57;18.10;99.90
57026;DHT22;43961;52.940;6.834;2022-08-03T02:43:25;18.10;99.90
57026;DHT22;43961;52.940;6.834;2022-08-03T02:45:52;18.10;99.90
57026;DHT22;43961;52.940;6.834;2022-08-03T02:48:26;18.10;99.90
57026;DHT22;43961;52.940;6.834;2022-08-03T02:50:54;18.10;99.90
57026;DHT22;43961;52.940;6.834;2022-08-03T02:53:22;18.10;99.90
57026;DHT22;43961;52.940;6.834;2022-08-03T02:55:49;18.10;99.90
57026;DHT22;43961;52.940;6.834;2022-08-03T02:58:17;18.10;99.90
57026;DHT22;43961;52.940;6.834;2022-08-03T03:00:46;18.10;99.90
57026;DHT22;43961;52.940;6.834;2022-08-03T03:03:12;18.10;99.90
57026;DHT22;43961;52.940;6.834;2022-08-03T03:05:40;18.10;99.90
57026;DHT22;43961;52.940;6.834;2022-08-03T03:08:07;18.10;99.90
57026;DHT22;43961;52.940;6.834;2022-08-03T03:10:34;18.10;99.90
57026;DHT22;43961;52.940;6.834;2022-08-03T03:13:01;18.00;99.90
57026;DHT22;43961;52.940;6.834;2022-08-03T03:15:28;18.10;99.90
57026;DHT22;43961;52.940;6.834;2022-08-03T03:17:56;18.10;99.90
57026;DHT22;43961;52.940;6.834;2022-08-03T03:20:23;18.00;99.90
57026;DHT22;43961;52.940;6.834;2022-08-03T03:22:49;18.00;99.90
57026;DHT22;43961;52.940;6.834;2022-08-03T03:25:16;18.00;99.90
57026;DHT22;43961;52.940;6.834;2022-08-03T03:27:42;18.00;99.90
57026;DHT22;43961;52.940;6.834;2022-08-03T03:30:08;17.90;99.90
57026;DHT22;43961;52.940;6.834;2022-08-03T03:32:35;17.90;99.90
57026;DHT22;43961;52.940;6.834;2022-08-03T03:35:02;17.90;99.90
57026;DHT22;43961;52.940;6.834;2022-08-03T03:37:29;17.90;99.90
57026;DHT22;43961;52.940;6.834;2022-08-03T03:39:54;17.90;99.90
57026;DHT22;43961;52.940;6.834;2022-08-03T03:42:20;17.90;99.90
57026;DHT22;43961;52.940;6.834;2022-08-03T03:44:46;17.80;99.90
57026;DHT22;43961;52.940;6.834;2022-08-03T03:47:13;17.90;99.90
57026;DHT22;43961;52.940;6.834;2022-08-03T03:49:39;17.80;99.90
57026;DHT22;43961;52.940;6.834;2022-08-03T03:52:07;17.90;99.90
57026;DHT22;43961;52.940;6.834;2022-08-03T03:54:40;17.80;99.90
57026;DHT22;43961;52.940;6.834;2022-08-03T03:57:06;17.80;99.90
57026;DHT22;43961;52.940;6.834;2022-08-03T03:59:31;17.80;99.90
57026;DHT22;43961;52.940;6.834;2022-08-03T04:01:57;17.80;99.90
57026;DHT22;43961;52.940;6.834;2022-08-03T04:04:23;17.80;99.90
57026;DHT22;43961;52.940;6.834;2022-08-03T04:07:08;17.80;99.90
57026;DHT22;43961;52.940;6.834;2022-08-03T04:09:53;17.90;99.90
57026;DHT22;43961;52.940;6.834;2022-08-03T04:12:40;17.90;99.90
57026;DHT22;43961;52.940;6.834;2022-08-03T04:15:07;17.90;99.90
57026;DHT22;43961;52.940;6.834;2022-08-03T04:17:33;18.00;99.90
57026;DHT22;43961;52.940;6.834;2022-08-03T04:20:00;18.10;99.90
57026;DHT22;43961;52.940;6.834;2022-08-03T04:22:28;18.30;99.90
57026;DHT22;43961;52.940;6.834;2022-08-03T04:25:02;18.40;99.90
57026;DHT22;43961;52.940;6.834;2022-08-03T04:27:34;18.50;99.90
57026;DHT22;43961;52.940;6.834;2022-08-03T04:30:03;18.60;99.90
57026;DHT22;43961;52.940;6.834;2022-08-03T04:32:29;18.80;99.90
57026;DHT22;43961;52.940;6.834;2022-08-03T04:34:56;18.90;99.90
57026;DHT22;43961;52.940;6.834;2022-08-03T04:37:45;18.90;99.90
57026;DHT22;43961;52.940;6.834;2022-08-03T04:40:26;18.90;99.90
57026;DHT22;43961;52.940;6.834;2022-08-03T04:42:53;18.70;99.90
57026;DHT22;43961;52.940;6.834;2022-08-03T04:45:20;18.60;99.90
57026;DHT22;43961;52.940;6.834;2022-08-03T04:47:46;18.60;99.90
57026;DHT22;43961;52.940;6.834;2022-08-03T04:50:12;18.60;99.90
57026;DHT22;43961;52.940;6.834;2022-08-03T04:52:38;18.60;99.90
57026;DHT22;43961;52.940;6.834;2022-08-03T04:55:04;18.60;99.90
57026;DHT22;43961;52.940;6.834;2022-08-03T04:57:29;18.50;99.90
57026;DHT22;43961;52.940;6.834;2022-08-03T04:59:55;18.60;99.90
57026;DHT22;43961;52.940;6.834;2022-08-03T05:02:22;18.60;99.90
57026;DHT22;43961;52.940;6.834;2022-08-03T05:04:48;18.70;99.90
57026;DHT22;43961;52.940;6.834;2022-08-03T05:07:16;18.70;99.90
57026;DHT22;43961;52.940;6.834;2022-08-03T05:09:42;18.70;99.90
57026;DHT22;43961;52.940;6.834;2022-08-03T05:12:09;18.70;99.90
57026;DHT22;43961;52.940;6.834;2022-08-03T05:14:35;18.80;99.90
57026;DHT22;43961;52.940;6.834;2022-08-03T05:17:03;18.80;99.90
57026;DHT22;43961;52.940;6.834;2022-08-03T05:19:29;18.80;99.90
57026;DHT22;43961;52.940;6.834;2022-08-03T05:21:55;18.80;99.90
57026;DHT22;43961;52.940;6.834;2022-08-03T05:24:20;18.80;99.90
57026;DHT22;43961;52.940;6.834;2022-08-03T05:26:46;18.90;99.90
57026;DHT22;43961;52.940;6.834;2022-08-03T05:29:12;18.90;99.90
57026;DHT22;43961;52.940;6.834;2022-08-03T05:31:37;18.90;99.90
57026;DHT22;43961;52.940;6.834;2022-08-03T05:34:03;19.00;99.90
57026;DHT22;43961;52.940;6.834;2022-08-03T05:36:29;19.00;99.90
57026;DHT22;43961;52.940;6.834;2022-08-03T05:38:54;19.00;99.90
57026;DHT22;43961;52.940;6.834;2022-08-03T05:41:20;19.00;99.90
57026;DHT22;43961;52.940;6.834;2022-08-03T05:43:45;19.10;99.90
57026;DHT22;43961;52.940;6.834;2022-08-03T05:46:12;19.10;99.90
57026;DHT22;43961;52.940;6.834;2022-08-03T05:48:38;19.10;99.90
57026;DHT22;43961;52.940;6.834;2022-08-03T05:51:04;19.20;99.90
57026;DHT22;43961;52.940;6.834;2022-08-03T05:53:34;19.20;99.90
57026;DHT22;43961;52.940;6.834;2022-08-03T05:56:00;19.30;99.90
57026;DHT22;43961;52.940;6.834;2022-08-03T05:58:26;19.30;99.90
57026;DHT22;43961;52.940;6.834;2022-08-03T06:00:52;19.30;99.90
57026;DHT22;43961;52.940;6.834;2022-08-03T06:03:18;19.30;99.90
57026;DHT22;43961;52.940;6.834;2022-08-03T06:05:44;19.40;99.90
57026;DHT22;43961;52.940;6.834;2022-08-03T06:08:10;19.40;99.90
57026;DHT22;43961;52.940;6.834;2022-08-03T06:10:35;19.40;99.90
57026;DHT22;43961;52.940;6.834;2022-08-03T06:13:01;19.50;99.90
57026;DHT22;43961;52.940;6.834;2022-08-03T06:15:27;19.50;99.90
57026;DHT22;43961;52.940;6.834;2022-08-03T06:17:52;19.60;99.90
57026;DHT22;43961;52.940;6.834;2022-08-03T06:20:19;19.60;99.90
57026;DHT22;43961;52.940;6.834;2022-08-03T06:22:46;19.70;99.90
57026;DHT22;43961;52.940;6.834;2022-08-03T06:25:12;19.80;99.90
57026;DHT22;43961;52.940;6.834;2022-08-03T06:27:38;19.80;99.90
57026;DHT22;43961;52.940;6.834;2022-08-03T06:30:05;19.80;99.90
57026;DHT22;43961;52.940;6.834;2022-08-03T06:32:32;19.90;99.90
57026;DHT22;43961;52.940;6.834;2022-08-03T06:34:58;20.00;99.90
57026;DHT22;43961;52.940;6.834;2022-08-03T06:37:24;20.00;99.90
57026;DHT22;43961;52.940;6.834;2022-08-03T06:39:52;20.10;99.90
57026;DHT22;43961;52.940;6.834;2022-08-03T06:42:18;20.20;99.90
57026;DHT22;43961;52.940;6.834;2022-08-03T06:44:44;20.20;99.90
57026;DHT22;43961;52.940;6.834;2022-08-03T06:47:09;20.30;99.90
57026;DHT22;43961;52.940;6.834;2022-08-03T06:49:36;20.30;99.90
57026;DHT22;43961;52.940;6.834;2022-08-03T06:52:01;20.40;99.90
57026;DHT22;43961;52.940;6.834;2022-08-03T06:54:27;20.60;99.90
57026;DHT22;43961;52.940;6.834;2022-08-03T06:56:54;20.60;99.90
57026;DHT22;43961;52.940;6.834;2022-08-03T06:59:20;20.60;99.90
57026;DHT22;43961;52.940;6.834;2022-08-03T07:01:45;20.80;99.90
57026;DHT22;43961;52.940;6.834;2022-08-03T07:04:11;20.90;99.90
57026;DHT22;43961;52.940;6.834;2022-08-03T07:06:37;21.00;99.90
57026;DHT22;43961;52.940;6.834;2022-08-03T07:09:04;21.20;99.90
57026;DHT22;43961;52.940;6.834;2022-08-03T07:11:29;21.30;99.90
57026;DHT22;43961;52.940;6.834;2022-08-03T07:13:55;21.50;99.90
57026;DHT22;43961;52.940;6.834;2022-08-03T07:16:21;21.80;99.90
57026;DHT22;43961;52.940;6.834;2022-08-03T07:18:48;22.10;99.90
57026;DHT22;43961;52.940;6.834;2022-08-03T07:21:13;22.20;99.90
57026;DHT22;43961;52.940;6.834;2022-08-03T07:23:41;22.30;99.90
57026;DHT22;43961;52.940;6.834;2022-08-03T07:26:07;22.40;99.90
57026;DHT22;43961;52.940;6.834;2022-08-03T07:28:33;22.60;99.90
57026;DHT22;43961;52.940;6.834;2022-08-03T07:30:59;22.60;99.90
57026;DHT22;43961;52.940;6.834;2022-08-03T07:33:24;22.70;99.90
57026;DHT22;43961;52.940;6.834;2022-08-03T07:35:50;22.90;99.90
57026;DHT22;43961;52.940;6.834;2022-08-03T07:38:16;23.00;99.90
57026;DHT22;43961;52.940;6.834;2022-08-03T07:40:42;23.10;99.90
57026;DHT22;43961;52.940;6.834;2022-08-03T07:43:07;23.30;99.90
57026;DHT22;43961;52.940;6.834;2022-08-03T07:45:33;23.50;99.90
57026;DHT22;43961;52.940;6.834;2022-08-03T07:47:59;23.60;99.90
57026;DHT22;43961;52.940;6.834;2022-08-03T07:50:25;23.70;99.90
57026;DHT22;43961;52.940;6.834;2022-08-03T07:52:51;23.70;99.90
57026;DHT22;43961;52.940;6.834;2022-08-03T07:55:20;23.80;99.90
57026;DHT22;43961;52.940;6.834;2022-08-03T07:57:46;23.90;99.90
57026;DHT22;43961;52.940;6.834;2022-08-03T08:00:18;24.20;99.90
57026;DHT22;43961;52.940;6.834;2022-08-03T08:02:44;24.40;99.90
57026;DHT22;43961;52.940;6.834;2022-08-03T08:05:10;24.50;99.90
57026;DHT22;43961;52.940;6.834;2022-08-03T08:07:37;24.90;99.90
57026;DHT22;43961;52.940;6.834;2022-08-03T08:10:07;25.00;99.90
57026;DHT22;43961;52.940;6.834;2022-08-03T08:12:34;25.20;99.90
57026;DHT22;43961;52.940;6.834;2022-08-03T08:15:01;25.40;99.90
57026;DHT22;43961;52.940;6.834;2022-08-03T08:17:27;25.70;99.90
57026;DHT22;43961;52.940;6.834;2022-08-03T08:19:52;25.90;99.90
57026;DHT22;43961;52.940;6.834;2022-08-03T08:22:18;26.20;99.90
57026;DHT22;43961;52.940;6.834;2022-08-03T08:24:44;26.30;99.90
57026;DHT22;43961;52.940;6.834;2022-08-03T08:27:13;26.40;99.90
57026;DHT22;43961;52.940;6.834;2022-08-03T08:29:38;26.30;99.90
57026;DHT22;43961;52.940;6.834;2022-08-03T08:32:04;26.20;99.90
57026;DHT22;43961;52.940;6.834;2022-08-03T08:34:30;26.30;99.90
57026;DHT22;43961;52.940;6.834;2022-08-03T08:36:55;26.40;99.90
57026;DHT22;43961;52.940;6.834;2022-08-03T08:39:21;26.40;99.90
57026;DHT22;43961;52.940;6.834;2022-08-03T08:41:51;26.40;99.90
57026;DHT22;43961;52.940;6.834;2022-08-03T08:44:17;26.70;99.90
57026;DHT22;43961;52.940;6.834;2022-08-03T08:46:43;26.90;99.90
57026;DHT22;43961;52.940;6.834;2022-08-03T08:49:09;26.90;99.90
57026;DHT22;43961;52.940;6.834;2022-08-03T08:51:35;27.10;99.90
57026;DHT22;43961;52.940;6.834;2022-08-03T08:54:06;27.20;99.90
57026;DHT22;43961;52.940;6.834;2022-08-03T08:56:32;27.40;99.90
57026;DHT22;43961;52.940;6.834;2022-08-03T08:59:00;27.60;99.90
57026;DHT22;43961;52.940;6.834;2022-08-03T09:01:27;27.80;99.90
57026;DHT22;43961;52.940;6.834;2022-08-03T09:03:53;27.90;99.90
57026;DHT22;43961;52.940;6.834;2022-08-03T09:06:20;28.00;99.90
57026;DHT22;43961;52.940;6.834;2022-08-03T09:08:46;27.90;99.90
57026;DHT22;43961;52.940;6.834;2022-08-03T09:11:12;27.90;99.90
57026;DHT22;43961;52.940;6.834;2022-08-03T09:13:38;28.20;99.90
57026;DHT22;43961;52.940;6.834;2022-08-03T09:18:40;28.30;99.90
57026;DHT22;43961;52.940;6.834;2022-08-03T09:21:12;28.30;99.90
57026;DHT22;43961;52.940;6.834;2022-08-03T09:23:46;28.50;99.90
57026;DHT22;43961;52.940;6.834;2022-08-03T09:26:19;28.50;99.90
57026;DHT22;43961;52.940;6.834;2022-08-03T09:28:45;28.70;99.90
57026;DHT22;43961;52.940;6.834;2022-08-03T09:31:11;28.90;99.90
57026;DHT22;43961;52.940;6.834;2022-08-03T09:33:46;29.00;99.90
57026;DHT22;43961;52.940;6.834;2022-08-03T09:36:40;29.20;99.90
57026;DHT22;43961;52.940;6.834;2022-08-03T09:41:39;28.90;99.90
57026;DHT22;43961;52.940;6.834;2022-08-03T09:44:05;29.10;99.90
57026;DHT22;43961;52.940;6.834;2022-08-03T09:46:38;29.10;99.90
57026;DHT22;43961;52.940;6.834;2022-08-03T09:49:12;29.20;99.90
57026;DHT22;43961;52.940;6.834;2022-08-03T09:51:38;29.30;99.90
57026;DHT22;43961;52.940;6.834;2022-08-03T09:54:05;29.20;99.90
57026;DHT22;43961;52.940;6.834;2022-08-03T09:56:45;29.30;99.90
57026;DHT22;43961;52.940;6.834;2022-08-03T09:59:13;29.40;99.90
57026;DHT22;43961;52.940;6.834;2022-08-03T10:01:47;29.60;99.90
57026;DHT22;43961;52.940;6.834;2022-08-03T10:04:14;29.60;99.90
57026;DHT22;43961;52.940;6.834;2022-08-03T10:06:44;29.70;99.90
57026;DHT22;43961;52.940;6.834;2022-08-03T10:09:15;29.60;99.90
57026;DHT22;43961;52.940;6.834;2022-08-03T10:11:42;29.60;99.90
57026;DHT22;43961;52.940;6.834;2022-08-03T10:14:09;29.60;99.90
57026;DHT22;43961;52.940;6.834;2022-08-03T10:16:43;29.60;99.90
57026;DHT22;43961;52.940;6.834;2022-08-03T10:19:09;29.80;99.90
57026;DHT22;43961;52.940;6.834;2022-08-03T10:21:37;29.90;99.90
57026;DHT22;43961;52.940;6.834;2022-08-03T10:24:06;29.90;99.90
57026;DHT22;43961;52.940;6.834;2022-08-03T10:26:35;30.10;99.90
57026;DHT22;43961;52.940;6.834;2022-08-03T10:29:04;30.20;99.90
57026;DHT22;43961;52.940;6.834;2022-08-03T10:31:39;30.30;98.60
57026;DHT22;43961;52.940;6.834;2022-08-03T10:34:16;30.30;93.70
57026;DHT22;43961;52.940;6.834;2022-08-03T10:36:44;30.30;95.20
57026;DHT22;43961;52.940;6.834;2022-08-03T10:39:12;30.20;96.00
57026;DHT22;43961;52.940;6.834;2022-08-03T10:41:39;30.30;97.80
57026;DHT22;43961;52.940;6.834;2022-08-03T10:44:19;30.20;94.40
57026;DHT22;43961;52.940;6.834;2022-08-03T10:46:46;30.30;93.60
57026;DHT22;43961;52.940;6.834;2022-08-03T10:49:17;30.40;93.60
57026;DHT22;43961;52.940;6.834;2022-08-03T10:51:47;30.40;93.60
57026;DHT22;43961;52.940;6.834;2022-08-03T10:57:51;30.50;92.70
57026;DHT22;43961;52.940;6.834;2022-08-03T11:00:24;30.70;83.60
57026;DHT22;43961;52.940;6.834;2022-08-03T11:05:42;30.60;79.10
57026;DHT22;43961;52.940;6.834;2022-08-03T11:08:19;30.70;86.90
57026;DHT22;43961;52.940;6.834;2022-08-03T11:10:47;30.50;83.80
57026;DHT22;43961;52.940;6.834;2022-08-03T11:13:18;30.60;88.20
57026;DHT22;43961;52.940;6.834;2022-08-03T11:15:46;30.60;84.10
57026;DHT22;43961;52.940;6.834;2022-08-03T11:18:13;30.60;90.70
57026;DHT22;43961;52.940;6.834;2022-08-03T11:20:56;30.70;86.20
57026;DHT22;43961;52.940;6.834;2022-08-03T11:23:40;30.70;80.40
57026;DHT22;43961;52.940;6.834;2022-08-03T11:26:18;30.60;83.40
57026;DHT22;43961;52.940;6.834;2022-08-03T11:28:45;30.60;83.00
57026;DHT22;43961;52.940;6.834;2022-08-03T11:34:09;30.60;79.50
57026;DHT22;43961;52.940;6.834;2022-08-03T11:39:43;30.50;76.40
57026;DHT22;43961;52.940;6.834;2022-08-03T11:44:59;30.60;75.60
57026;DHT22;43961;52.940;6.834;2022-08-03T11:47:28;30.70;77.90
57026;DHT22;43961;52.940;6.834;2022-08-03T11:49:56;30.80;72.50
57026;DHT22;43961;52.940;6.834;2022-08-03T11:52:24;30.90;70.00
57026;DHT22;43961;52.940;6.834;2022-08-03T11:54:51;30.90;69.10
57026;DHT22;43961;52.940;6.834;2022-08-03T11:57:34;30.90;68.30
57026;DHT22;43961;52.940;6.834;2022-08-03T11:59:59;31.10;67.10
57026;DHT22;43961;52.940;6.834;2022-08-03T12:02:25;31.30;67.40
57026;DHT22;43961;52.940;6.834;2022-08-03T12:07:19;31.30;67.30
57026;DHT22;43961;52.940;6.834;2022-08-03T12:12:32;31.40;63.10
57026;DHT22;43961;52.940;6.834;2022-08-03T12:14:58;31.50;65.60
57026;DHT22;43961;52.940;6.834;2022-08-03T12:17:36;31.50;65.90
57026;DHT22;43961;52.940;6.834;2022-08-03T12:20:05;31.50;64.10
57026;DHT22;43961;52.940;6.834;2022-08-03T12:22:32;31.60;63.50
57026;DHT22;43961;52.940;6.834;2022-08-03T12:24:58;31.70;63.40
57026;DHT22;43961;52.940;6.834;2022-08-03T12:27:24;31.70;65.20
57026;DHT22;43961;52.940;6.834;2022-08-03T12:29:55;31.80;64.40
57026;DHT22;43961;52.940;6.834;2022-08-03T12:32:20;31.90;62.80
57026;DHT22;43961;52.940;6.834;2022-08-03T12:34:49;32.00;62.60
57026;DHT22;43961;52.940;6.834;2022-08-03T12:37:19;32.00;60.50
57026;DHT22;43961;52.940;6.834;2022-08-03T12:39:54;31.90;59.70
57026;DHT22;43961;52.940;6.834;2022-08-03T12:42:28;31.90;60.10
57026;DHT22;43961;52.940;6.834;2022-08-03T12:44:54;31.90;60.50
57026;DHT22;43961;52.940;6.834;2022-08-03T12:47:19;31.90;60.10
57026;DHT22;43961;52.940;6.834;2022-08-03T12:49:51;32.10;60.70
57026;DHT22;43961;52.940;6.834;2022-08-03T12:52:21;32.10;58.10
57026;DHT22;43961;52.940;6.834;2022-08-03T12:54:58;32.10;57.60
57026;DHT22;43961;52.940;6.834;2022-08-03T12:57:24;32.10;58.10
57026;DHT22;43961;52.940;6.834;2022-08-03T12:59:51;32.00;57.70
57026;DHT22;43961;52.940;6.834;2022-08-03T13:02:24;32.10;57.70
57026;DHT22;43961;52.940;6.834;2022-08-03T13:04:52;32.10;55.60
57026;DHT22;43961;52.940;6.834;2022-08-03T13:07:18;32.10;56.90
57026;DHT22;43961;52.940;6.834;2022-08-03T13:09:49;32.20;56.40
57026;DHT22;43961;52.940;6.834;2022-08-03T13:12:21;32.20;55.40
57026;DHT22;43961;52.940;6.834;2022-08-03T13:14:57;32.20;56.40
57026;DHT22;43961;52.940;6.834;2022-08-03T13:17:23;32.30;56.60
57026;DHT22;43961;52.940;6.834;2022-08-03T13:19:49;32.30;55.90
57026;DHT22;43961;52.940;6.834;2022-08-03T13:22:17;32.20;55.90
57026;DHT22;43961;52.940;6.834;2022-08-03T13:24:46;32.30;55.90
57026;DHT22;43961;52.940;6.834;2022-08-03T13:27:12;32.20;55.80
57026;DHT22;43961;52.940;6.834;2022-08-03T13:29:39;32.10;56.20
57026;DHT22;43961;52.940;6.834;2022-08-03T13:32:05;32.00;56.30
57026;DHT22;43961;52.940;6.834;2022-08-03T13:34:31;32.00;55.90
57026;DHT22;43961;52.940;6.834;2022-08-03T13:36:57;32.00;56.20
57026;DHT22;43961;52.940;6.834;2022-08-03T13:39:22;32.00;56.50
57026;DHT22;43961;52.940;6.834;2022-08-03T13:41:49;32.00;57.00
57026;DHT22;43961;52.940;6.834;2022-08-03T13:44:15;32.00;56.70
57026;DHT22;43961;52.940;6.834;2022-08-03T13:46:40;32.00;57.00
57026;DHT22;43961;52.940;6.834;2022-08-03T13:49:06;32.00;56.50
57026;DHT22;43961;52.940;6.834;2022-08-03T13:51:33;32.00;57.20
57026;DHT22;43961;52.940;6.834;2022-08-03T13:53:59;32.00;58.10
57026;DHT22;43961;52.940;6.834;2022-08-03T13:56:29;31.80;57.40
57026;DHT22;43961;52.940;6.834;2022-08-03T13:58:55;31.90;57.60
57026;DHT22;43961;52.940;6.834;2022-08-03T14:01:21;31.80;56.90
57026;DHT22;43961;52.940;6.834;2022-08-03T14:03:47;31.80;57.30
57026;DHT22;43961;52.940;6.834;2022-08-03T14:06:14;31.70;56.50
57026;DHT22;43961;52.940;6.834;2022-08-03T14:08:40;31.60;56.70
57026;DHT22;43961;52.940;6.834;2022-08-03T14:11:07;31.60;57.20
57026;DHT22;43961;52.940;6.834;2022-08-03T14:13:33;31.50;57.10
57026;DHT22;43961;52.940;6.834;2022-08-03T14:15:58;31.40;56.90
57026;DHT22;43961;52.940;6.834;2022-08-03T14:18:24;31.50;57.00
57026;DHT22;43961;52.940;6.834;2022-08-03T14:20:50;31.40;56.80
57026;DHT22;43961;52.940;6.834;2022-08-03T14:23:16;31.20;56.90
57026;DHT22;43961;52.940;6.834;2022-08-03T14:25:42;31.20;57.60
57026;DHT22;43961;52.940;6.834;2022-08-03T14:28:08;31.10;57.70
57026;DHT22;43961;52.940;6.834;2022-08-03T14:30:34;31.10;58.40
57026;DHT22;43961;52.940;6.834;2022-08-03T14:33:00;31.20;58.40
57026;DHT22;43961;52.940;6.834;2022-08-03T14:35:25;31.20;58.20
57026;DHT22;43961;52.940;6.834;2022-08-03T14:37:51;31.20;58.40
57026;DHT22;43961;52.940;6.834;2022-08-03T14:40:18;31.20;58.70
57026;DHT22;43961;52.940;6.834;2022-08-03T14:42:43;31.20;58.70
57026;DHT22;43961;52.940;6.834;2022-08-03T14:45:09;31.30;59.00
57026;DHT22;43961;52.940;6.834;2022-08-03T14:47:35;31.30;58.80
57026;DHT22;43961;52.940;6.834;2022-08-03T14:50:01;31.30;58.60
57026;DHT22;43961;52.940;6.834;2022-08-03T14:52:29;31.30;58.80
57026;DHT22;43961;52.940;6.834;2022-08-03T14:54:55;31.20;58.50
57026;DHT22;43961;52.940;6.834;2022-08-03T14:57:21;31.30;58.20
57026;DHT22;43961;52.940;6.834;2022-08-03T14:59:47;31.20;57.80
57026;DHT22;43961;52.940;6.834;2022-08-03T15:02:13;31.20;58.10
57026;DHT22;43961;52.940;6.834;2022-08-03T15:04:39;31.20;58.60
57026;DHT22;43961;52.940;6.834;2022-08-03T15:07:04;31.30;58.30
57026;DHT22;43961;52.940;6.834;2022-08-03T15:09:30;31.20;57.80
57026;DHT22;43961;52.940;6.834;2022-08-03T15:11:56;31.20;57.90
57026;DHT22;43961;52.940;6.834;2022-08-03T15:14:21;31.10;58.10
57026;DHT22;43961;52.940;6.834;2022-08-03T15:16:47;31.00;57.40
57026;DHT22;43961;52.940;6.834;2022-08-03T15:19:13;30.90;57.20
57026;DHT22;43961;52.940;6.834;2022-08-03T15:21:39;31.00;57.50
57026;DHT22;43961;52.940;6.834;2022-08-03T15:24:05;30.90;57.20
57026;DHT22;43961;52.940;6.834;2022-08-03T15:26:31;30.90;57.60
57026;DHT22;43961;52.940;6.834;2022-08-03T15:28:56;31.00;58.00
57026;DHT22;43961;52.940;6.834;2022-08-03T15:31:23;30.90;56.90
57026;DHT22;43961;52.940;6.834;2022-08-03T15:33:49;30.80;56.10
57026;DHT22;43961;52.940;6.834;2022-08-03T15:36:18;30.80;55.10
57026;DHT22;43961;52.940;6.834;2022-08-03T15:38:44;30.70;55.00
57026;DHT22;43961;52.940;6.834;2022-08-03T15:41:14;30.70;54.60
57026;DHT22;43961;52.940;6.834;2022-08-03T15:43:40;30.70;53.80
57026;DHT22;43961;52.940;6.834;2022-08-03T15:46:06;30.60;53.20
57026;DHT22;43961;52.940;6.834;2022-08-03T15:48:32;30.50;52.20
57026;DHT22;43961;52.940;6.834;2022-08-03T15:50:58;30.50;52.00
57026;DHT22;43961;52.940;6.834;2022-08-03T15:53:24;30.40;52.00
57026;DHT22;43961;52.940;6.834;2022-08-03T15:55:49;30.40;52.40
57026;DHT22;43961;52.940;6.834;2022-08-03T15:58:15;30.40;53.10
57026;DHT22;43961;52.940;6.834;2022-08-03T16:00:42;30.50;53.70
57026;DHT22;43961;52.940;6.834;2022-08-03T16:03:08;30.40;53.70
57026;DHT22;43961;52.940;6.834;2022-08-03T16:05:34;30.50;54.00
57026;DHT22;43961;52.940;6.834;2022-08-03T16:08:00;30.40;54.00
57026;DHT22;43961;52.940;6.834;2022-08-03T16:10:26;30.40;53.90
57026;DHT22;43961;52.940;6.834;2022-08-03T16:12:55;30.40;53.70